createdAt,value
2017-10-25T00:00:56.882Z,8.83
2017-10-25T00:03:25.140Z,9.00
2017-10-25T00:05:53.207Z,8.47
2017-10-25T00:08:21.295Z,8.70
2017-10-25T00:10:49.563Z,8.13
2017-10-25T00:13:17.655Z,7.40
2017-10-25T00:15:45.729Z,7.40
2017-10-25T00:18:13.825Z,8.30
2017-10-25T00:20:42.051Z,7.87
2017-10-25T00:23:10.130Z,7.93
2017-10-25T00:25:38.971Z,7.40
2017-10-25T00:28:07.087Z,7.07
2017-10-25T00:30:35.152Z,6.87
2017-10-25T00:33:04.761Z,7.60
2017-10-25T00:35:32.834Z,7.40
2017-10-25T00:38:01.689Z,7.93
2017-10-25T00:40:29.892Z,8.20
2017-10-25T00:42:57.968Z,6.80
2017-10-25T00:45:26.839Z,7.70
2017-10-25T00:47:54.923Z,7.57
2017-10-25T00:50:23.767Z,6.37
2017-10-25T00:52:51.872Z,8.60
2017-10-25T00:55:19.948Z,6.53
2017-10-25T00:57:48.018Z,7.50
2017-10-25T01:00:16.104Z,7.47
2017-10-25T01:02:44.939Z,7.10
2017-10-25T01:05:13.026Z,6.27
2017-10-25T01:07:41.110Z,7.10
2017-10-25T01:10:09.192Z,6.63
2017-10-25T01:12:37.263Z,7.23
2017-10-25T01:15:06.116Z,9.50
2017-10-25T01:17:39.952Z,7.27
2017-10-25T01:20:08.818Z,7.20
2017-10-25T01:22:37.003Z,7.83
2017-10-25T01:25:05.864Z,6.67
2017-10-25T01:27:33.945Z,6.70
2017-10-25T01:30:02.044Z,7.30
2017-10-25T01:32:30.115Z,8.13
2017-10-25T01:34:58.201Z,9.30
2017-10-25T01:37:27.039Z,8.13
2017-10-25T01:39:55.127Z,6.53
2017-10-25T01:42:23.204Z,8.47
2017-10-25T01:44:51.283Z,7.87
2017-10-25T01:47:19.367Z,7.80
2017-10-25T01:49:47.431Z,8.50
2017-10-25T01:52:16.285Z,8.50
2017-10-25T01:54:44.387Z,9.27
2017-10-25T01:57:13.246Z,7.20
2017-10-25T01:59:41.384Z,6.90
2017-10-25T02:02:09.457Z,7.00
2017-10-25T02:04:37.547Z,7.23
2017-10-25T02:07:05.623Z,7.47
2017-10-25T02:09:33.703Z,9.87
2017-10-25T02:12:02.100Z,6.80
2017-10-25T02:14:30.264Z,6.77
2017-10-25T02:16:58.355Z,6.43
2017-10-25T02:19:27.216Z,6.70
2017-10-25T02:21:55.298Z,5.87
2017-10-25T02:24:23.396Z,7.70
2017-10-25T02:26:51.476Z,8.83
2017-10-25T02:29:19.647Z,7.50
2017-10-25T02:31:47.748Z,7.90
2017-10-25T02:34:15.835Z,7.20
2017-10-25T02:36:43.939Z,8.00
2017-10-25T02:39:12.190Z,6.63
2017-10-25T02:41:40.285Z,10.30
2017-10-25T02:44:08.362Z,8.50
2017-10-25T02:46:36.500Z,6.40
2017-10-25T02:49:05.342Z,9.13
2017-10-25T02:51:33.559Z,8.23
2017-10-25T02:54:01.633Z,7.90
2017-10-25T02:56:29.735Z,7.17
2017-10-25T02:58:58.569Z,8.90
2017-10-25T03:01:26.656Z,7.47
2017-10-25T03:03:54.730Z,8.80
2017-10-25T03:06:22.824Z,10.00
2017-10-25T03:08:51.685Z,10.27
2017-10-25T03:11:19.783Z,10.00
2017-10-25T03:13:48.623Z,9.13
2017-10-25T03:16:16.712Z,8.60
2017-10-25T03:18:44.987Z,9.10
2017-10-25T03:21:13.258Z,7.27
2017-10-25T03:23:41.372Z,9.43
2017-10-25T03:26:09.622Z,9.60
2017-10-25T03:28:37.720Z,8.80
2017-10-25T03:31:05.835Z,8.70
2017-10-25T03:33:33.926Z,8.73
2017-10-25T03:36:02.761Z,8.93
2017-10-25T03:38:30.883Z,10.67
2017-10-25T03:41:00.179Z,9.33
2017-10-25T03:43:29.033Z,9.67
2017-10-25T03:45:57.119Z,9.90
2017-10-25T03:48:25.315Z,9.63
2017-10-25T03:50:53.595Z,8.90
2017-10-25T03:53:21.707Z,9.37
2017-10-25T03:55:49.816Z,9.67
2017-10-25T03:58:17.906Z,11.00
2017-10-25T04:00:45.978Z,10.60
2017-10-25T04:03:14.356Z,13.13
2017-10-25T04:05:42.447Z,10.77
2017-10-25T04:08:10.577Z,12.77
2017-10-25T04:10:38.708Z,10.63
2017-10-25T04:13:06.849Z,10.17
2017-10-25T04:15:34.931Z,9.37
2017-10-25T04:18:03.029Z,10.17
2017-10-25T04:20:31.255Z,9.73
2017-10-25T04:22:59.349Z,9.87
2017-10-25T04:25:27.451Z,10.20
2017-10-25T04:27:55.557Z,11.43
2017-10-25T04:30:23.638Z,9.70
2017-10-25T04:32:51.727Z,10.17
2017-10-25T04:35:20.704Z,10.80
2017-10-25T04:37:48.779Z,12.97
2017-10-25T04:40:17.635Z,9.93
2017-10-25T04:42:45.731Z,11.90
2017-10-25T04:45:13.824Z,10.10
2017-10-25T04:47:42.680Z,10.73
2017-10-25T04:50:10.772Z,10.93
2017-10-25T04:52:39.616Z,9.00
2017-10-25T04:55:07.724Z,10.10
2017-10-25T04:57:35.813Z,13.13
2017-10-25T05:00:03.912Z,12.73
2017-10-25T05:02:32.139Z,12.67
2017-10-25T05:05:00.224Z,11.50
2017-10-25T05:07:29.074Z,10.17
2017-10-25T05:09:57.171Z,9.67
2017-10-25T05:12:25.243Z,10.07
2017-10-25T05:14:53.502Z,15.20
2017-10-25T05:17:21.597Z,11.00
2017-10-25T05:19:49.748Z,9.57
2017-10-25T05:22:17.936Z,8.80
2017-10-25T05:24:46.079Z,11.13
2017-10-25T05:27:14.954Z,7.63
2017-10-25T05:29:43.167Z,8.60
2017-10-25T05:32:11.292Z,8.30
2017-10-25T05:34:39.400Z,9.47
2017-10-25T05:37:07.468Z,9.63
2017-10-25T05:39:35.711Z,8.43
2017-10-25T05:42:03.803Z,9.30
2017-10-25T05:44:32.802Z,8.93
2017-10-25T05:47:00.887Z,8.80
2017-10-25T05:49:29.730Z,13.50
2017-10-25T05:51:57.820Z,8.97
2017-10-25T05:54:25.909Z,8.50
2017-10-25T05:56:54.182Z,8.67
2017-10-25T05:59:22.260Z,8.23
2017-10-25T06:01:50.340Z,11.67
2017-10-25T06:04:19.181Z,8.80
2017-10-25T06:06:47.281Z,10.33
2017-10-25T06:09:15.371Z,10.80
2017-10-25T06:11:44.224Z,7.93
2017-10-25T06:14:12.304Z,8.80
2017-10-25T06:16:40.420Z,8.87
2017-10-25T06:19:09.271Z,8.10
2017-10-25T06:21:38.124Z,9.70
2017-10-25T06:24:06.216Z,7.57
2017-10-25T06:26:34.308Z,9.03
2017-10-25T06:29:03.146Z,10.33
2017-10-25T06:31:31.999Z,7.77
2017-10-25T06:34:00.075Z,7.67
2017-10-25T06:36:28.168Z,7.80
2017-10-25T06:38:56.249Z,8.33
2017-10-25T06:41:24.338Z,7.60
2017-10-25T06:43:52.410Z,9.83
2017-10-25T06:46:20.511Z,7.13
2017-10-25T06:48:49.376Z,8.10
2017-10-25T06:51:17.463Z,9.43
2017-10-25T06:53:46.311Z,6.90
2017-10-25T06:56:14.387Z,7.73
2017-10-25T06:58:42.479Z,7.97
2017-10-25T07:01:10.553Z,7.67
2017-10-25T07:03:38.634Z,7.20
2017-10-25T07:06:07.478Z,6.93
2017-10-25T07:08:35.560Z,8.60
2017-10-25T07:11:03.639Z,7.63
2017-10-25T07:13:31.734Z,7.90
2017-10-25T07:15:59.791Z,7.80
2017-10-25T07:18:27.884Z,7.57
2017-10-25T07:20:56.728Z,7.60
2017-10-25T07:23:24.819Z,11.93
2017-10-25T07:25:52.902Z,5.70
2017-10-25T07:28:21.745Z,9.60
2017-10-25T07:30:49.835Z,5.37
2017-10-25T07:33:17.917Z,5.30
2017-10-25T07:35:45.990Z,6.10
2017-10-25T07:38:14.060Z,5.93
2017-10-25T07:40:42.155Z,5.70
2017-10-25T07:43:10.993Z,5.63
2017-10-25T07:45:39.077Z,4.70
2017-10-25T07:48:07.143Z,4.40
2017-10-25T07:50:35.233Z,4.30
2017-10-25T07:53:03.313Z,4.33
2017-10-25T07:55:32.163Z,4.80
2017-10-25T07:58:00.252Z,5.90
2017-10-25T08:00:28.325Z,5.13
2017-10-25T08:02:56.410Z,3.50
2017-10-25T08:05:25.255Z,3.93
2017-10-25T08:07:53.339Z,3.90
2017-10-25T08:10:21.422Z,4.67
2017-10-25T08:12:49.515Z,3.93
2017-10-25T08:15:17.645Z,3.13
2017-10-25T08:17:45.731Z,4.03
2017-10-25T08:20:14.575Z,3.97
2017-10-25T08:22:42.666Z,3.57
2017-10-25T08:25:10.860Z,3.23
2017-10-25T08:27:40.576Z,3.60
2017-10-25T08:30:08.724Z,3.00
2017-10-25T08:32:36.803Z,4.50
2017-10-25T08:35:04.887Z,4.23
2017-10-25T08:37:33.058Z,2.90
2017-10-25T08:40:01.357Z,2.83
2017-10-25T08:42:29.412Z,2.30
2017-10-25T08:44:58.267Z,4.40
2017-10-25T08:47:26.351Z,2.60
2017-10-25T08:49:54.439Z,3.27
2017-10-25T08:52:22.718Z,3.00
2017-10-25T08:54:50.989Z,2.60
2017-10-25T08:57:19.047Z,3.17
2017-10-25T08:59:47.119Z,3.30
2017-10-25T09:02:15.200Z,2.90
2017-10-25T09:04:43.302Z,3.40
2017-10-25T09:07:11.399Z,3.77
2017-10-25T09:09:39.500Z,3.40
2017-10-25T09:12:07.580Z,3.53
2017-10-25T09:14:35.663Z,2.77
2017-10-25T09:17:04.531Z,2.83
2017-10-25T09:19:32.620Z,3.80
2017-10-25T09:22:01.462Z,3.53
2017-10-25T09:24:29.674Z,3.30
2017-10-25T09:26:57.753Z,3.23
2017-10-25T09:29:25.856Z,2.97
2017-10-25T09:31:53.949Z,3.63
2017-10-25T09:34:22.024Z,3.20
2017-10-25T09:36:50.104Z,3.57
2017-10-25T09:39:18.200Z,3.00
2017-10-25T09:41:47.167Z,5.83
2017-10-25T09:44:15.287Z,3.40
2017-10-25T09:46:43.377Z,3.27
2017-10-25T09:49:11.462Z,3.60
2017-10-25T09:51:39.555Z,3.67
2017-10-25T09:54:07.639Z,3.37
2017-10-25T09:56:35.725Z,2.97
2017-10-25T09:59:04.571Z,3.27
2017-10-25T10:01:32.664Z,3.30
2017-10-25T10:04:00.747Z,3.53
2017-10-25T10:06:29.592Z,3.63
2017-10-25T10:08:57.680Z,3.40
2017-10-25T10:11:25.772Z,4.20
2017-10-25T10:13:54.615Z,4.00
2017-10-25T10:16:22.709Z,4.53
2017-10-25T10:18:50.787Z,3.70
2017-10-25T10:21:18.871Z,4.83
2017-10-25T10:23:47.711Z,4.70
2017-10-25T10:26:15.795Z,4.57
2017-10-25T10:28:43.871Z,5.53
2017-10-25T10:31:11.951Z,4.77
2017-10-25T10:33:40.027Z,4.30
2017-10-25T10:36:08.335Z,3.77
2017-10-25T10:38:36.492Z,4.70
2017-10-25T10:41:04.578Z,4.90
2017-10-25T10:43:32.660Z,5.30
2017-10-25T10:46:00.906Z,5.40
2017-10-25T10:48:28.984Z,4.87
2017-10-25T10:50:57.067Z,4.40
2017-10-25T10:53:25.148Z,3.80
2017-10-25T10:55:54.052Z,6.63
2017-10-25T10:58:22.099Z,3.63
2017-10-25T11:00:50.190Z,4.00
2017-10-25T11:03:19.031Z,3.53
2017-10-25T11:05:47.117Z,3.60
2017-10-25T11:08:15.192Z,3.30
2017-10-25T11:10:43.295Z,3.33
2017-10-25T11:13:12.150Z,3.40
2017-10-25T11:15:40.241Z,3.07
2017-10-25T11:18:09.087Z,2.90
2017-10-25T11:20:37.172Z,3.20
2017-10-25T11:23:05.598Z,3.80
2017-10-25T11:25:34.439Z,3.20
2017-10-25T11:28:02.514Z,2.80
2017-10-25T11:30:30.609Z,2.50
2017-10-25T11:32:59.460Z,2.53
2017-10-25T11:35:27.562Z,2.60
2017-10-25T11:38:02.455Z,2.27
2017-10-25T11:40:30.551Z,2.20
2017-10-25T11:42:58.643Z,2.50
2017-10-25T11:45:27.507Z,2.30
2017-10-25T11:47:55.648Z,2.07
2017-10-25T11:50:23.707Z,1.90
2017-10-25T11:52:51.835Z,2.77
2017-10-25T11:55:19.910Z,1.90
2017-10-25T11:57:48.171Z,2.30
2017-10-25T12:00:16.255Z,3.23
2017-10-25T12:02:45.120Z,2.60
2017-10-25T12:05:13.202Z,1.87
2017-10-25T12:07:41.280Z,2.40
2017-10-25T12:10:10.141Z,2.30
2017-10-25T12:12:38.220Z,2.73
2017-10-25T12:15:06.631Z,2.87
2017-10-25T12:17:35.488Z,3.93
2017-10-25T12:20:03.575Z,2.30
2017-10-25T12:22:31.670Z,2.47
2017-10-25T12:24:59.756Z,3.07
2017-10-25T12:27:27.852Z,2.70
2017-10-25T12:29:55.941Z,3.20
2017-10-25T12:32:24.022Z,3.47
2017-10-25T12:34:52.115Z,3.13
2017-10-25T12:37:20.968Z,7.60
2017-10-25T12:39:49.053Z,4.30
2017-10-25T12:42:17.131Z,3.70
2017-10-25T12:44:45.976Z,3.00
2017-10-25T12:47:14.065Z,3.43
2017-10-25T12:49:42.151Z,3.57
2017-10-25T12:52:10.231Z,4.53
2017-10-25T12:54:39.086Z,3.07
2017-10-25T12:57:07.179Z,3.00
2017-10-25T13:02:33.732Z,3.10
2017-10-25T13:05:01.809Z,2.60
2017-10-25T13:07:30.664Z,2.63
2017-10-25T13:09:59.127Z,1.97
2017-10-25T13:12:28.604Z,2.20
2017-10-25T13:15:01.231Z,2.63
2017-10-25T13:17:29.700Z,2.27
2017-10-25T13:19:57.784Z,2.27
2017-10-25T13:22:25.874Z,2.53
2017-10-25T13:24:53.955Z,3.17
2017-10-25T13:27:22.813Z,2.87
2017-10-25T13:29:50.889Z,2.37
2017-10-25T13:32:18.984Z,2.27
2017-10-25T13:34:47.824Z,2.63
2017-10-25T13:37:15.915Z,1.67
2017-10-25T13:39:43.995Z,1.30
2017-10-25T13:42:12.078Z,1.40
2017-10-25T13:44:40.933Z,1.20
2017-10-25T13:47:09.024Z,2.63
2017-10-25T13:49:37.103Z,2.00
2017-10-25T13:52:05.966Z,2.13
2017-10-25T13:54:34.031Z,1.90
2017-10-25T13:57:02.124Z,2.03
2017-10-25T13:59:30.219Z,1.63
2017-10-25T14:01:59.066Z,2.23
2017-10-25T14:04:27.152Z,2.10
2017-10-25T14:06:55.244Z,1.40
2017-10-25T14:09:24.151Z,1.30
2017-10-25T14:11:52.267Z,3.30
2017-10-25T14:14:21.196Z,1.43
2017-10-25T14:16:50.063Z,1.87
2017-10-25T14:19:18.144Z,1.73
2017-10-25T14:21:46.244Z,1.70
2017-10-25T14:24:14.337Z,3.40
2017-10-25T14:27:08.347Z,1.40
2017-10-25T14:29:37.436Z,1.53
2017-10-25T14:32:05.709Z,2.07
2017-10-25T14:34:33.863Z,1.67
2017-10-25T14:37:01.952Z,1.50
2017-10-25T14:39:30.059Z,1.60
2017-10-25T14:41:58.170Z,2.27
2017-10-25T14:44:26.235Z,1.50
2017-10-25T14:46:54.316Z,3.73
2017-10-25T14:49:22.384Z,2.50
2017-10-25T14:51:50.451Z,1.77
2017-10-25T14:54:18.551Z,1.63
2017-10-25T14:56:46.634Z,2.03
2017-10-25T14:59:15.488Z,1.43
2017-10-25T15:01:43.572Z,1.60
2017-10-25T15:04:11.674Z,1.40
2017-10-25T15:06:40.510Z,2.07
2017-10-25T15:09:08.596Z,1.80
2017-10-25T15:11:36.685Z,6.60
2017-10-25T15:14:04.807Z,2.57
2017-10-25T15:16:32.888Z,1.80
2017-10-25T15:19:00.971Z,2.73
2017-10-25T15:21:29.043Z,2.10
2017-10-25T15:23:57.135Z,2.80
2017-10-25T15:26:25.221Z,2.17
2017-10-25T15:28:54.069Z,1.90
2017-10-25T15:31:22.132Z,7.60
2017-10-25T15:33:50.214Z,2.40
2017-10-25T15:36:18.312Z,1.60
2017-10-25T15:38:46.396Z,2.40
2017-10-25T15:41:15.269Z,2.50
2017-10-25T15:43:43.377Z,2.87
2017-10-25T15:46:11.440Z,2.63
2017-10-25T15:48:39.520Z,2.47
2017-10-25T15:51:07.608Z,2.23
2017-10-25T15:56:32.022Z,2.40
2017-10-25T15:59:00.106Z,2.40
2017-10-25T16:01:28.183Z,2.83
2017-10-25T16:03:56.283Z,2.70
2017-10-25T16:06:25.124Z,4.53
2017-10-25T16:08:53.205Z,4.23
2017-10-25T16:11:21.294Z,4.33
2017-10-25T16:13:49.370Z,6.63
2017-10-25T16:16:18.215Z,6.70
2017-10-25T16:18:46.299Z,6.77
2017-10-25T16:21:14.390Z,4.67
2017-10-25T16:23:42.486Z,4.93
2017-10-25T16:26:10.551Z,5.00
2017-10-25T16:28:39.404Z,4.77
2017-10-25T16:31:07.483Z,4.00
2017-10-25T16:33:35.578Z,3.90
2017-10-25T16:36:04.433Z,4.40
2017-10-25T16:38:32.515Z,4.67
2017-10-25T16:41:00.646Z,6.00
2017-10-25T16:43:28.745Z,14.57
2017-10-25T16:45:56.930Z,18.97
2017-10-25T16:48:25.052Z,13.50
2017-10-25T16:50:53.143Z,15.30
2017-10-25T16:53:21.236Z,11.60
2017-10-25T16:55:49.337Z,12.27
2017-10-25T16:58:18.191Z,8.23
2017-10-25T17:00:46.264Z,4.93
2017-10-25T17:03:14.351Z,5.77
2017-10-25T17:05:43.195Z,8.00
2017-10-25T17:08:11.284Z,7.57
2017-10-25T17:10:39.368Z,9.77
2017-10-25T17:13:07.461Z,55.90
2017-10-25T17:15:36.318Z,34.50
2017-10-25T17:18:04.412Z,19.63
2017-10-25T17:20:33.255Z,7.60
2017-10-25T17:23:01.349Z,4.30
2017-10-25T17:25:29.415Z,4.37
2017-10-25T17:27:57.535Z,4.70
2017-10-25T17:30:25.607Z,7.20
2017-10-25T17:32:53.748Z,5.83
2017-10-25T17:35:22.596Z,4.80
2017-10-25T17:37:50.687Z,8.17
2017-10-25T17:40:18.768Z,6.73
2017-10-25T17:42:46.853Z,4.93
2017-10-25T17:45:15.708Z,6.77
2017-10-25T17:47:43.822Z,10.00
2017-10-25T17:50:12.679Z,4.97
2017-10-25T17:52:40.746Z,5.30
2017-10-25T17:55:08.835Z,5.40
2017-10-25T17:57:37.692Z,8.87
2017-10-25T18:00:05.772Z,7.00
2017-10-25T18:02:33.861Z,5.13
2017-10-25T18:05:01.948Z,5.53
2017-10-25T18:07:30.784Z,5.90
2017-10-25T18:09:58.870Z,7.67
2017-10-25T18:12:26.959Z,5.30
2017-10-25T18:14:56.045Z,6.07
2017-10-25T18:17:24.908Z,7.80
2017-10-25T18:19:53.028Z,6.83
2017-10-25T18:22:21.101Z,6.60
2017-10-25T18:24:49.352Z,8.70
2017-10-25T18:27:17.428Z,6.90
2017-10-25T18:29:45.513Z,6.77
2017-10-25T18:32:13.644Z,6.90
2017-10-25T18:34:41.741Z,9.10
2017-10-25T18:37:10.587Z,8.73
2017-10-25T18:39:38.679Z,9.30
2017-10-25T18:42:06.775Z,9.10
2017-10-25T18:44:34.853Z,10.43
2017-10-25T18:47:03.692Z,9.70
2017-10-25T18:49:31.798Z,10.93
2017-10-25T18:51:59.875Z,8.63
2017-10-25T18:54:28.729Z,9.97
2017-10-25T18:56:56.813Z,12.07
2017-10-25T18:59:24.955Z,12.90
2017-10-25T19:01:53.060Z,14.73
2017-10-25T19:04:21.151Z,17.43
2017-10-25T19:06:50.011Z,13.67
2017-10-25T19:09:18.527Z,12.53
2017-10-25T19:11:46.657Z,12.10
2017-10-25T19:14:14.748Z,11.63
2017-10-25T19:16:42.920Z,10.60
2017-10-25T19:19:11.787Z,11.90
2017-10-25T19:21:39.963Z,9.83
2017-10-25T19:24:08.149Z,8.87
2017-10-25T19:26:36.251Z,11.67
2017-10-25T19:29:04.506Z,11.27
2017-10-25T19:31:32.584Z,12.40
2017-10-25T19:34:00.723Z,13.13
2017-10-25T19:36:29.591Z,31.43
2017-10-25T19:38:57.703Z,28.50
2017-10-25T19:41:26.581Z,29.60
2017-10-25T19:43:54.664Z,21.43
2017-10-25T19:46:22.754Z,16.47
2017-10-25T19:48:51.609Z,16.40
2017-10-25T19:51:19.787Z,17.77
2017-10-25T19:53:47.960Z,17.47
2017-10-25T19:56:16.136Z,15.70
2017-10-25T19:58:44.997Z,16.63
2017-10-25T20:01:13.100Z,15.53
2017-10-25T20:03:41.197Z,14.57
2017-10-25T20:06:09.280Z,15.27
2017-10-25T20:08:37.376Z,14.97
2017-10-25T20:11:05.488Z,15.57
2017-10-25T20:13:33.566Z,14.20
2017-10-25T20:16:02.428Z,13.97
2017-10-25T20:18:30.527Z,14.73
2017-10-25T20:20:59.451Z,14.40
2017-10-25T20:23:27.558Z,12.33
2017-10-25T20:25:55.639Z,13.30
2017-10-25T20:28:23.735Z,14.47
2017-10-25T20:30:51.813Z,14.07
2017-10-25T20:33:19.895Z,12.77
2017-10-25T20:35:47.991Z,16.93
2017-10-25T20:38:16.102Z,15.33
2017-10-25T20:40:44.965Z,15.50
2017-10-25T20:43:13.815Z,12.23
2017-10-25T20:45:41.907Z,13.90
2017-10-25T20:48:10.006Z,13.03
2017-10-25T20:50:38.138Z,12.40
2017-10-25T20:53:06.223Z,12.17
2017-10-25T20:55:34.319Z,14.17
2017-10-25T20:58:02.412Z,13.20
2017-10-25T21:00:31.276Z,13.87
2017-10-25T21:02:59.360Z,14.23
2017-10-25T21:05:28.215Z,11.13
2017-10-25T21:07:56.307Z,12.10
2017-10-25T21:10:24.397Z,10.80
2017-10-25T21:12:53.252Z,11.10
2017-10-25T21:15:21.346Z,11.80
2017-10-25T21:17:50.190Z,12.30
2017-10-25T21:20:18.284Z,13.30
2017-10-25T21:22:46.371Z,11.57
2017-10-25T21:25:15.240Z,11.20
2017-10-25T21:27:43.327Z,11.67
2017-10-25T21:30:11.610Z,12.40
2017-10-25T21:32:39.686Z,12.33
2017-10-25T21:35:07.814Z,12.60
2017-10-25T21:37:36.003Z,11.13
2017-10-25T21:40:04.100Z,13.70
2017-10-25T21:42:32.369Z,11.90
2017-10-25T21:45:00.630Z,12.40
2017-10-25T21:47:28.717Z,20.20
2017-10-25T21:49:57.575Z,22.90
2017-10-25T21:52:25.672Z,20.87
2017-10-25T21:54:54.540Z,19.90
2017-10-25T21:57:22.632Z,16.60
2017-10-25T21:59:51.489Z,16.17
2017-10-25T22:02:19.575Z,12.47
2017-10-25T22:04:47.664Z,15.37
2017-10-25T22:07:16.516Z,13.83
2017-10-25T22:09:44.603Z,15.67
2017-10-25T22:12:12.698Z,13.50
2017-10-25T22:14:41.563Z,14.87
2017-10-25T22:17:09.657Z,17.43
2017-10-25T22:19:38.524Z,15.00
2017-10-25T22:22:06.608Z,17.90
2017-10-25T22:24:35.461Z,13.60
2017-10-25T22:27:03.566Z,18.37
2017-10-25T22:29:31.670Z,14.60
2017-10-25T22:31:59.776Z,12.20
2017-10-25T22:34:27.868Z,14.30
2017-10-25T22:36:56.048Z,14.40
2017-10-25T22:39:24.141Z,12.70
2017-10-25T22:41:52.242Z,16.73
2017-10-25T22:44:20.322Z,12.40
2017-10-25T22:46:48.412Z,12.40
2017-10-25T22:49:17.270Z,18.43
2017-10-25T22:51:45.359Z,18.00
2017-10-25T22:54:13.467Z,17.83
2017-10-25T22:56:42.391Z,15.43
2017-10-25T22:59:10.481Z,13.60
2017-10-25T23:01:38.666Z,15.10
2017-10-25T23:04:06.792Z,14.80
2017-10-25T23:06:34.932Z,15.80
2017-10-25T23:09:03.019Z,15.37
2017-10-25T23:11:31.870Z,15.43
2017-10-25T23:13:59.971Z,18.10
2017-10-25T23:16:28.829Z,18.60
2017-10-25T23:18:56.934Z,18.10
2017-10-25T23:21:25.796Z,13.60
2017-10-25T23:23:53.896Z,15.10
2017-10-25T23:26:22.743Z,17.40
2017-10-25T23:28:50.847Z,17.13
2017-10-25T23:31:19.712Z,20.03
2017-10-25T23:33:47.803Z,19.13
2017-10-25T23:36:16.654Z,19.67
2017-10-25T23:38:44.763Z,15.83
2017-10-25T23:41:13.660Z,21.43
2017-10-25T23:43:41.791Z,16.13
2017-10-25T23:46:09.981Z,17.27
2017-10-25T23:48:38.075Z,17.00
2017-10-25T23:51:06.932Z,20.13
2017-10-25T23:53:35.036Z,20.13
2017-10-25T23:56:03.887Z,16.63
2017-10-25T23:58:31.988Z,15.13
